createdAt,value
2023-02-09T00:01:31.131Z,21.37
2023-02-09T00:03:59.754Z,23.97
2023-02-09T00:06:29.774Z,21.03
2023-02-09T00:08:58.659Z,19.47
2023-02-09T00:11:47.554Z,37.07
2023-02-09T00:14:19.637Z,25.13
2023-02-09T00:16:49.224Z,24.93
2023-02-09T00:19:17.509Z,20.83
2023-02-09T00:21:44.915Z,21.07
2023-02-09T00:24:12.881Z,21.70
2023-02-09T00:26:41.614Z,21.37
2023-02-09T00:29:09.760Z,20.80
2023-02-09T00:31:37.656Z,19.57
2023-02-09T00:34:05.346Z,19.43
2023-02-09T00:36:33.083Z,24.40
2023-02-09T00:39:00.439Z,23.87
2023-02-09T00:41:46.284Z,21.60
2023-02-09T00:44:13.951Z,21.73
2023-02-09T00:46:42.049Z,19.97
2023-02-09T00:49:09.456Z,22.67
2023-02-09T00:51:37.006Z,23.43
2023-02-09T00:54:04.513Z,24.87
2023-02-09T00:56:32.054Z,25.40
2023-02-09T00:59:00.467Z,20.87
2023-02-09T01:01:28.171Z,20.10
2023-02-09T01:03:56.684Z,20.33
2023-02-09T01:06:23.985Z,19.67
2023-02-09T01:08:51.284Z,19.67
2023-02-09T01:11:19.118Z,20.77
2023-02-09T01:13:50.107Z,23.03
2023-02-09T01:16:18.369Z,19.10
2023-02-09T01:18:45.834Z,20.57
2023-02-09T01:21:16.699Z,20.30
2023-02-09T01:23:44.982Z,21.07
2023-02-09T01:26:13.897Z,24.53
2023-02-09T01:28:41.742Z,16.80
2023-02-09T01:31:28.827Z,18.67
2023-02-09T01:33:58.080Z,21.30
2023-02-09T01:36:29.023Z,22.47
2023-02-09T01:38:58.572Z,20.10
2023-02-09T01:41:26.739Z,23.87
2023-02-09T01:44:04.323Z,20.47
2023-02-09T01:46:34.535Z,19.63
2023-02-09T01:49:07.470Z,21.83
2023-02-09T01:51:48.302Z,14.73
2023-02-09T01:54:20.783Z,16.40
2023-02-09T01:57:06.839Z,21.20
2023-02-09T01:59:38.315Z,20.10
2023-02-09T02:02:08.540Z,19.17
2023-02-09T02:04:36.735Z,19.73
2023-02-09T02:07:14.485Z,19.00
2023-02-09T02:09:42.998Z,18.33
2023-02-09T02:12:10.608Z,20.77
2023-02-09T02:14:39.676Z,19.27
2023-02-09T02:17:19.993Z,24.10
2023-02-09T02:20:08.387Z,22.37
2023-02-09T02:23:04.085Z,21.07
2023-02-09T02:26:11.869Z,15.67
2023-02-09T02:29:05.367Z,19.73
2023-02-09T02:32:01.332Z,17.83
2023-02-09T02:34:40.898Z,16.43
2023-02-09T02:37:18.793Z,21.53
2023-02-09T02:39:57.504Z,18.90
2023-02-09T02:42:48.215Z,22.33
2023-02-09T02:45:40.488Z,18.30
2023-02-09T02:48:21.594Z,20.37
2023-02-09T02:51:08.178Z,19.20
2023-02-09T02:53:37.570Z,20.23
2023-02-09T02:56:14.198Z,22.63
2023-02-09T02:58:44.338Z,22.80
2023-02-09T03:01:16.237Z,22.13
2023-02-09T03:03:46.204Z,20.80
2023-02-09T03:06:14.542Z,19.73
2023-02-09T03:08:54.024Z,19.47
2023-02-09T03:11:23.528Z,18.67
2023-02-09T03:14:01.350Z,20.23
2023-02-09T03:16:45.440Z,17.93
2023-02-09T03:19:22.133Z,23.27
2023-02-09T03:21:57.400Z,22.90
2023-02-09T03:24:39.963Z,21.53
2023-02-09T03:27:16.953Z,21.73
2023-02-09T03:29:47.714Z,20.63
2023-02-09T03:32:17.473Z,20.73
2023-02-09T03:34:45.748Z,20.70
2023-02-09T03:37:13.451Z,20.40
2023-02-09T03:39:40.937Z,17.50
2023-02-09T03:42:08.343Z,23.33
2023-02-09T03:44:36.010Z,22.33
2023-02-09T03:47:07.027Z,17.13
2023-02-09T03:49:39.587Z,16.53
2023-02-09T03:52:09.938Z,23.63
2023-02-09T03:54:37.875Z,18.57
2023-02-09T03:57:06.324Z,20.97
2023-02-09T03:59:37.642Z,17.57
2023-02-09T04:02:06.882Z,16.50
2023-02-09T04:04:35.168Z,18.50
2023-02-09T04:07:03.071Z,21.00
2023-02-09T04:09:30.748Z,16.27
2023-02-09T04:11:58.041Z,23.70
2023-02-09T04:14:25.430Z,21.30
2023-02-09T04:16:52.754Z,23.33
2023-02-09T04:19:20.049Z,20.57
2023-02-09T04:21:47.485Z,22.83
2023-02-09T04:24:15.224Z,18.63
2023-02-09T04:26:42.480Z,27.90
2023-02-09T04:29:09.775Z,22.00
2023-02-09T04:31:37.178Z,23.07
2023-02-09T04:34:04.670Z,24.57
2023-02-09T04:36:32.215Z,19.53
2023-02-09T04:38:59.585Z,21.53
2023-02-09T04:41:27.019Z,23.27
2023-02-09T04:43:54.382Z,23.63
2023-02-09T04:46:21.697Z,20.63
2023-02-09T04:48:48.988Z,20.03
2023-02-09T04:51:16.538Z,21.33
2023-02-09T04:53:43.975Z,21.17
2023-02-09T04:56:15.289Z,21.83
2023-02-09T04:59:02.162Z,21.57
2023-02-09T05:01:30.328Z,21.23
2023-02-09T05:03:57.734Z,25.13
2023-02-09T05:06:25.186Z,25.20
2023-02-09T05:08:52.459Z,19.70
2023-02-09T05:11:19.799Z,20.80
2023-02-09T05:13:47.395Z,22.77
2023-02-09T05:16:17.587Z,19.90
2023-02-09T05:18:45.365Z,21.20
2023-02-09T05:21:14.195Z,18.60
2023-02-09T05:23:42.692Z,19.13
2023-02-09T05:26:10.003Z,19.83
2023-02-09T05:28:37.365Z,20.40
2023-02-09T05:31:04.880Z,22.50
2023-02-09T05:33:32.251Z,23.03
2023-02-09T05:35:59.948Z,20.53
2023-02-09T05:38:27.504Z,25.30
2023-02-09T05:40:54.818Z,22.13
2023-02-09T05:43:22.523Z,20.03
2023-02-09T05:45:49.937Z,19.07
2023-02-09T05:48:17.439Z,24.53
2023-02-09T05:50:45.004Z,21.60
2023-02-09T05:53:15.340Z,25.13
2023-02-09T05:55:43.863Z,22.90
2023-02-09T05:58:11.224Z,25.07
2023-02-09T06:00:38.530Z,22.03
2023-02-09T06:03:06.414Z,25.73
2023-02-09T06:05:33.892Z,20.37
2023-02-09T06:08:01.256Z,17.83
2023-02-09T06:10:28.549Z,23.67
2023-02-09T06:12:55.884Z,23.53
2023-02-09T06:15:23.297Z,21.87
2023-02-09T06:17:50.619Z,23.70
2023-02-09T06:20:18.131Z,18.27
2023-02-09T06:22:45.380Z,26.90
2023-02-09T06:25:12.920Z,17.17
2023-02-09T06:27:40.405Z,21.37
2023-02-09T06:30:08.637Z,20.47
2023-02-09T06:32:37.245Z,22.07
2023-02-09T06:35:05.485Z,22.97
2023-02-09T06:37:33.455Z,22.67
2023-02-09T06:40:02.881Z,23.63
2023-02-09T06:42:43.589Z,25.80
2023-02-09T06:45:16.469Z,21.73
2023-02-09T06:47:45.083Z,17.20
2023-02-09T06:50:14.649Z,25.27
2023-02-09T06:52:42.279Z,23.67
2023-02-09T06:55:09.805Z,22.90
2023-02-09T06:57:37.206Z,27.77
2023-02-09T07:00:07.129Z,23.43
2023-02-09T07:02:34.921Z,25.20
2023-02-09T07:05:02.279Z,23.40
2023-02-09T07:07:29.654Z,21.70
2023-02-09T07:09:56.922Z,24.93
2023-02-09T07:12:24.501Z,25.63
2023-02-09T07:14:52.978Z,28.83
2023-02-09T07:17:20.357Z,25.20
2023-02-09T07:19:47.888Z,24.43
2023-02-09T07:22:15.735Z,26.00
2023-02-09T07:24:43.043Z,22.43
2023-02-09T07:27:10.367Z,24.30
2023-02-09T07:29:37.754Z,26.13
2023-02-09T07:32:07.362Z,22.50
2023-02-09T07:34:35.368Z,26.17
2023-02-09T07:37:04.096Z,23.40
2023-02-09T07:39:31.780Z,25.90
2023-02-09T07:41:59.785Z,27.33
2023-02-09T07:44:42.542Z,24.63
2023-02-09T07:47:10.190Z,24.47
2023-02-09T07:49:37.479Z,27.43
2023-02-09T07:52:05.276Z,27.27
2023-02-09T07:54:34.790Z,24.57
2023-02-09T07:57:02.310Z,26.10
2023-02-09T07:59:30.461Z,25.03
2023-02-09T08:01:58.616Z,27.63
2023-02-09T08:04:26.189Z,26.33
2023-02-09T08:06:54.867Z,26.73
2023-02-09T08:09:22.615Z,30.03
2023-02-09T08:11:54.174Z,28.93
2023-02-09T08:14:48.344Z,28.83
2023-02-09T08:17:23.074Z,32.80
2023-02-09T08:19:56.041Z,28.23
2023-02-09T08:22:25.124Z,32.93
2023-02-09T08:24:53.493Z,30.33
2023-02-09T08:27:20.868Z,31.70
2023-02-09T08:29:49.149Z,31.80
2023-02-09T08:32:16.534Z,26.97
2023-02-09T08:34:43.934Z,32.13
2023-02-09T08:37:12.287Z,26.60
2023-02-09T08:39:39.638Z,28.50
2023-02-09T08:42:07.080Z,31.30
2023-02-09T08:44:34.453Z,29.63
2023-02-09T08:47:02.010Z,68.37
2023-02-09T08:49:29.532Z,165.77
2023-02-09T08:51:56.978Z,36.90
2023-02-09T08:54:28.109Z,80.73
2023-02-09T08:57:42.804Z,30.23
2023-02-09T09:00:13.256Z,34.93
2023-02-09T09:02:40.799Z,30.70
2023-02-09T09:05:08.848Z,28.20
2023-02-09T09:07:36.864Z,28.70
2023-02-09T09:10:04.587Z,25.27
2023-02-09T09:12:38.381Z,23.70
2023-02-09T09:15:08.149Z,30.73
2023-02-09T09:21:38.855Z,26.27
2023-02-09T09:25:05.408Z,30.70
2023-02-09T09:27:34.866Z,25.10
2023-02-09T09:30:03.879Z,26.23
2023-02-09T09:32:31.501Z,26.23
2023-02-09T09:34:59.274Z,28.53
2023-02-09T09:37:26.871Z,27.33
2023-02-09T09:39:54.149Z,33.40
2023-02-09T09:42:32.478Z,27.13
2023-02-09T09:45:00.497Z,28.07
2023-02-09T09:47:46.005Z,25.57
2023-02-09T09:50:28.132Z,23.93
2023-02-09T09:53:07.727Z,30.20
2023-02-09T09:55:38.383Z,20.90
2023-02-09T10:02:27.803Z,22.13
2023-02-09T10:05:23.616Z,24.40
2023-02-09T10:12:04.955Z,21.83
2023-02-09T10:14:35.069Z,24.20
2023-02-09T10:17:05.177Z,30.83
2023-02-09T10:19:32.770Z,24.73
2023-02-09T10:22:00.288Z,21.37
2023-02-09T10:36:31.681Z,27.13
2023-02-09T10:39:25.640Z,25.23
2023-02-09T10:41:55.779Z,26.17
2023-02-09T10:49:43.064Z,27.87
2023-02-09T10:52:34.302Z,27.27
2023-02-09T10:55:41.740Z,27.57
2023-02-09T11:01:10.059Z,25.80
2023-02-09T11:04:21.226Z,23.47
2023-02-09T11:24:54.349Z,28.97
2023-02-09T11:30:52.266Z,30.23
2023-02-09T11:33:29.645Z,26.90
2023-02-09T11:36:45.457Z,28.37
2023-02-09T11:42:46.261Z,32.57
2023-02-09T11:45:36.470Z,27.23
2023-02-09T11:48:39.734Z,27.10
2023-02-09T11:51:21.595Z,24.37
2023-02-09T11:54:17.571Z,25.23
2023-02-09T11:56:53.196Z,22.43
2023-02-09T12:03:15.888Z,27.57
2023-02-09T12:05:49.962Z,25.30
2023-02-09T12:08:42.578Z,26.23
2023-02-09T12:11:33.405Z,25.33
2023-02-09T12:14:26.713Z,25.63
2023-02-09T12:17:12.957Z,26.77
2023-02-09T12:20:08.254Z,22.20
2023-02-09T12:22:51.558Z,24.20
2023-02-09T12:25:53.284Z,22.70
2023-02-09T12:28:27.730Z,29.30
2023-02-09T12:30:59.167Z,25.03
2023-02-09T12:33:27.367Z,23.80
2023-02-09T12:39:44.304Z,25.57
2023-02-09T12:42:24.533Z,23.03
2023-02-09T12:45:06.330Z,25.57
2023-02-09T12:47:45.843Z,21.90
2023-02-09T12:50:24.812Z,26.77
2023-02-09T12:53:22.680Z,25.03
2023-02-09T12:56:12.756Z,28.13
2023-02-09T12:58:45.313Z,25.50
2023-02-09T13:01:16.563Z,22.80
2023-02-09T13:04:19.543Z,25.43
2023-02-09T13:06:59.287Z,25.00
2023-02-09T13:09:33.291Z,30.93
2023-02-09T13:12:15.862Z,24.83
2023-02-09T13:14:51.042Z,23.90
2023-02-09T13:18:04.231Z,24.53
2023-02-09T13:20:38.684Z,24.63
2023-02-09T13:23:22.843Z,26.13
2023-02-09T13:26:02.279Z,23.37
2023-02-09T13:28:33.853Z,29.93
2023-02-09T13:31:05.274Z,34.80
2023-02-09T13:34:04.280Z,25.77
2023-02-09T13:37:13.340Z,25.47
2023-02-09T13:39:44.225Z,23.10
2023-02-09T13:42:24.491Z,29.00
2023-02-09T13:44:57.070Z,25.57
2023-02-09T13:47:38.488Z,26.37
2023-02-09T13:51:43.287Z,26.10
2023-02-09T13:54:23.996Z,24.00
2023-02-09T13:56:53.461Z,26.20
2023-02-09T13:59:21.857Z,26.37
2023-02-09T14:01:51.894Z,25.83
2023-02-09T14:04:39.759Z,31.73
2023-02-09T14:07:11.587Z,24.93
2023-02-09T14:09:46.477Z,25.83
2023-02-09T14:12:55.800Z,23.27
2023-02-09T14:15:49.685Z,30.77
2023-02-09T14:18:29.752Z,26.23
2023-02-09T14:21:01.928Z,25.60
2023-02-09T14:23:35.049Z,23.33
2023-02-09T14:26:06.611Z,25.30
2023-02-09T14:28:37.904Z,32.20
2023-02-09T14:31:07.490Z,31.03
2023-02-09T14:33:37.647Z,28.93
2023-02-09T14:36:07.643Z,29.03
2023-02-09T14:38:38.935Z,23.67
2023-02-09T14:41:25.903Z,27.00
2023-02-09T14:44:00.543Z,26.13
2023-02-09T14:46:28.574Z,27.70
2023-02-09T14:48:58.167Z,26.97
2023-02-09T14:51:27.669Z,26.43
2023-02-09T14:53:58.010Z,26.40
2023-02-09T14:56:37.078Z,24.83
2023-02-09T14:59:20.503Z,25.93
2023-02-09T15:04:51.457Z,24.80
2023-02-09T15:07:57.790Z,25.63
2023-02-09T15:10:36.923Z,24.83
2023-02-09T15:13:38.406Z,26.30
2023-02-09T15:16:18.100Z,23.00
2023-02-09T15:19:24.873Z,23.67
2023-02-09T15:22:48.897Z,24.40
2023-02-09T15:25:41.842Z,28.93
2023-02-09T15:28:28.896Z,24.03
2023-02-09T15:31:56.763Z,28.07
2023-02-09T15:34:40.004Z,22.67
2023-02-09T15:37:35.334Z,25.40
2023-02-09T15:40:18.137Z,27.10
2023-02-09T15:43:12.704Z,27.40
2023-02-09T15:46:05.498Z,26.07
2023-02-09T15:49:54.579Z,22.20
2023-02-09T15:52:30.291Z,28.10
2023-02-09T15:55:07.933Z,27.17
2023-02-09T15:57:37.960Z,27.33
2023-02-09T16:00:17.148Z,24.23
2023-02-09T16:02:55.436Z,26.17
2023-02-09T16:05:30.440Z,25.73
2023-02-09T16:08:21.611Z,26.83
2023-02-09T16:11:38.373Z,27.43
2023-02-09T16:17:05.810Z,27.67
2023-02-09T16:19:35.283Z,26.23
2023-02-09T16:37:32.307Z,24.10
2023-02-09T16:40:04.253Z,26.33
2023-02-09T16:42:36.369Z,26.43
2023-02-09T16:45:41.153Z,27.93
2023-02-09T16:48:41.344Z,27.90
2023-02-09T16:51:44.259Z,26.83
2023-02-09T16:54:17.409Z,23.03
2023-02-09T16:56:54.651Z,26.63
2023-02-09T16:59:56.689Z,25.63
2023-02-09T17:02:42.639Z,24.70
2023-02-09T17:05:27.627Z,29.40
2023-02-09T17:08:19.057Z,26.53
2023-02-09T17:10:51.904Z,23.40
2023-02-09T17:13:25.015Z,27.73
2023-02-09T17:15:57.620Z,29.43
2023-02-09T17:18:44.228Z,28.30
2023-02-09T17:21:19.711Z,24.37
2023-02-09T17:23:48.642Z,28.53
2023-02-09T17:26:19.717Z,26.37
2023-02-09T17:28:49.162Z,27.47
2023-02-09T17:32:39.152Z,28.57
2023-02-09T17:35:44.593Z,25.83
2023-02-09T17:38:24.488Z,26.97
2023-02-09T17:41:01.376Z,25.33
2023-02-09T17:43:30.683Z,26.40
2023-02-09T17:46:00.026Z,24.40
2023-02-09T17:49:18.668Z,28.53
2023-02-09T17:51:47.846Z,28.57
2023-02-09T17:54:18.883Z,28.17
2023-02-09T17:56:50.649Z,22.80
2023-02-09T17:59:21.770Z,28.83
2023-02-09T18:01:51.050Z,29.87
2023-02-09T18:07:29.687Z,25.47
2023-02-09T18:09:58.639Z,25.87
2023-02-09T18:12:32.901Z,27.47
2023-02-09T18:15:08.674Z,32.13
2023-02-09T18:17:42.743Z,32.37
2023-02-09T18:29:03.768Z,30.80
2023-02-09T18:31:34.506Z,32.43
2023-02-09T18:37:08.243Z,31.93
2023-02-09T18:39:38.885Z,35.90
2023-02-09T18:45:23.755Z,37.67
2023-02-09T18:47:52.745Z,35.40
2023-02-09T18:50:24.511Z,31.10
2023-02-09T18:52:55.304Z,34.03
2023-02-09T18:55:29.904Z,37.47
2023-02-09T18:58:22.616Z,36.03
2023-02-09T19:00:55.541Z,43.50
2023-02-09T19:03:23.396Z,40.23
2023-02-09T19:05:52.050Z,37.93
2023-02-09T19:08:19.536Z,33.33
2023-02-09T19:10:47.126Z,38.57
2023-02-09T19:13:17.539Z,34.10
2023-02-09T19:15:47.674Z,39.40
2023-02-09T19:18:19.860Z,38.23
2023-02-09T19:20:47.605Z,41.13
2023-02-09T19:23:15.120Z,42.20
2023-02-09T19:25:43.894Z,49.97
2023-02-09T19:28:12.565Z,40.37
2023-02-09T19:30:41.930Z,37.77
2023-02-09T19:33:10.477Z,40.40
2023-02-09T19:35:39.164Z,46.43
2023-02-09T19:38:08.777Z,42.37
2023-02-09T19:40:40.629Z,38.80
2023-02-09T19:43:08.108Z,40.50
2023-02-09T19:45:38.480Z,43.23
2023-02-09T19:48:08.657Z,33.57
2023-02-09T19:50:37.186Z,40.30
2023-02-09T19:53:08.049Z,41.37
2023-02-09T19:55:35.590Z,38.17
2023-02-09T19:58:03.247Z,32.83
2023-02-09T20:00:32.510Z,37.00
2023-02-09T20:03:00.464Z,35.90
2023-02-09T20:05:28.005Z,45.90
2023-02-09T20:07:57.178Z,43.00
2023-02-09T20:10:24.747Z,33.60
2023-02-09T20:12:52.771Z,35.93
2023-02-09T20:15:20.211Z,40.57
2023-02-09T20:20:15.460Z,34.77
2023-02-09T20:22:43.177Z,39.33
2023-02-09T20:25:13.122Z,39.70
2023-02-09T20:27:41.014Z,43.43
2023-02-09T20:30:09.355Z,39.23
2023-02-09T20:32:37.022Z,36.93
2023-02-09T20:35:05.625Z,38.20
2023-02-09T20:37:33.180Z,43.20
2023-02-09T20:40:01.479Z,38.43
2023-02-09T20:42:47.596Z,45.67
2023-02-09T20:45:37.499Z,59.30
2023-02-09T20:48:05.641Z,67.00
2023-02-09T20:50:42.740Z,49.97
2023-02-09T20:53:11.009Z,50.10
2023-02-09T20:55:38.540Z,46.73
2023-02-09T20:58:06.324Z,50.67
2023-02-09T21:00:34.122Z,45.87
2023-02-09T21:03:01.637Z,50.67
2023-02-09T21:05:29.069Z,49.13
2023-02-09T21:07:56.471Z,47.43
2023-02-09T21:10:24.015Z,47.00
2023-02-09T21:12:51.520Z,48.40
2023-02-09T21:15:19.193Z,51.80
2023-02-09T21:17:51.488Z,47.93
2023-02-09T21:20:19.040Z,46.77
2023-02-09T21:22:46.745Z,43.73
2023-02-09T21:25:14.337Z,56.37
2023-02-09T21:27:41.832Z,44.37
2023-02-09T21:30:10.084Z,40.27
2023-02-09T21:32:38.516Z,40.67
2023-02-09T21:35:10.326Z,39.90
2023-02-09T21:37:38.889Z,43.87
2023-02-09T21:40:07.170Z,44.40
2023-02-09T21:42:36.856Z,42.20
2023-02-09T21:45:04.655Z,44.53
2023-02-09T21:47:35.818Z,43.30
2023-02-09T21:50:03.643Z,41.53
2023-02-09T21:52:31.634Z,38.30
2023-02-09T21:54:59.682Z,41.67
2023-02-09T21:57:28.862Z,42.20
2023-02-09T21:59:56.783Z,42.87
2023-02-09T22:02:24.215Z,41.13
2023-02-09T22:04:52.608Z,47.10
2023-02-09T22:07:20.007Z,42.37
2023-02-09T22:09:47.500Z,43.93
2023-02-09T22:12:15.053Z,40.73
2023-02-09T22:14:42.547Z,38.67
2023-02-09T22:17:10.054Z,40.60
2023-02-09T22:19:37.655Z,53.40
2023-02-09T22:22:05.219Z,61.33
2023-02-09T22:24:34.943Z,57.40
2023-02-09T22:27:03.493Z,50.27
2023-02-09T22:29:33.355Z,48.63
2023-02-09T22:32:01.553Z,42.47
2023-02-09T22:34:29.296Z,47.53
2023-02-09T22:36:56.790Z,40.47
2023-02-09T22:39:24.265Z,44.17
2023-02-09T22:41:54.323Z,40.93
2023-02-09T22:44:21.889Z,45.87
2023-02-09T22:46:49.390Z,45.20
2023-02-09T22:49:19.579Z,44.63
2023-02-09T22:51:48.738Z,49.27
2023-02-09T22:54:18.940Z,41.33
2023-02-09T22:56:46.881Z,44.60
2023-02-09T22:59:15.419Z,47.10
2023-02-09T23:01:43.826Z,46.90
2023-02-09T23:04:11.721Z,48.63
2023-02-09T23:06:39.394Z,42.20
2023-02-09T23:09:07.525Z,43.07
2023-02-09T23:11:35.980Z,42.60
2023-02-09T23:14:09.632Z,40.67
2023-02-09T23:16:39.786Z,42.23
2023-02-09T23:19:10.987Z,38.63
2023-02-09T23:21:40.752Z,44.63
2023-02-09T23:24:09.218Z,44.43
2023-02-09T23:26:38.007Z,46.23
2023-02-09T23:29:08.492Z,46.77
2023-02-09T23:31:36.350Z,37.90
2023-02-09T23:34:04.374Z,47.10
2023-02-09T23:36:32.880Z,43.50
2023-02-09T23:39:04.869Z,36.63
2023-02-09T23:41:33.034Z,41.13
2023-02-09T23:44:00.679Z,37.80
2023-02-09T23:46:29.363Z,42.53
2023-02-09T23:48:57.781Z,41.70
2023-02-09T23:51:31.124Z,38.70
2023-02-09T23:54:01.749Z,38.57
2023-02-09T23:56:36.686Z,44.13
2023-02-09T23:59:09.587Z,45.37
